sensor_id;sensor_type;location;lat;lon;timestamp;pressure;altitude;pressure_sealevel;temperature;humidity
49459;BME280;35354;51.296;16.924;2023-05-25T00:01:27;100204.88;;;10.44;94.37
49459;BME280;35354;51.296;16.924;2023-05-25T00:03:52;100198.94;;;10.40;94.66
49459;BME280;35354;51.296;16.924;2023-05-25T00:06:19;100207.47;;;10.45;96.05
49459;BME280;35354;51.296;16.924;2023-05-25T00:08:45;100211.56;;;10.51;96.59
49459;BME280;35354;51.296;16.924;2023-05-25T00:11:11;100224.31;;;10.59;96.79
49459;BME280;35354;51.296;16.924;2023-05-25T00:13:37;100196.22;;;10.43;97.01
49459;BME280;35354;51.296;16.924;2023-05-25T00:16:03;100197.16;;;10.42;96.92
49459;BME280;35354;51.296;16.924;2023-05-25T00:18:28;100216.72;;;10.53;96.90
49459;BME280;35354;51.296;16.924;2023-05-25T00:20:53;100215.09;;;10.50;97.32
49459;BME280;35354;51.296;16.924;2023-05-25T00:23:19;100200.41;;;10.47;97.37
49459;BME280;35354;51.296;16.924;2023-05-25T00:25:45;100219.88;;;10.61;98.18
49459;BME280;35354;51.296;16.924;2023-05-25T00:28:11;100190.25;;;10.41;97.82
49459;BME280;35354;51.296;16.924;2023-05-25T00:30:36;100206.44;;;10.49;97.90
49459;BME280;35354;51.296;16.924;2023-05-25T00:33:01;100213.22;;;10.54;97.74
49459;BME280;35354;51.296;16.924;2023-05-25T00:35:27;100196.34;;;10.40;97.72
49459;BME280;35354;51.296;16.924;2023-05-25T00:37:52;100227.03;;;10.56;98.03
49459;BME280;35354;51.296;16.924;2023-05-25T00:40:18;100218.44;;;10.54;97.88
49459;BME280;35354;51.296;16.924;2023-05-25T00:42:44;100212.50;;;10.50;98.10
49459;BME280;35354;51.296;16.924;2023-05-25T00:45:10;100218.53;;;10.51;98.11
49459;BME280;35354;51.296;16.924;2023-05-25T00:47:36;100198.94;;;10.40;98.10
49459;BME280;35354;51.296;16.924;2023-05-25T00:50:02;100208.47;;;10.41;98.25
49459;BME280;35354;51.296;16.924;2023-05-25T00:52:28;100190.72;;;10.28;98.19
49459;BME280;35354;51.296;16.924;2023-05-25T00:54:54;100186.50;;;10.25;98.33
49459;BME280;35354;51.296;16.924;2023-05-25T00:57:24;100202.03;;;10.28;98.81
49459;BME280;35354;51.296;16.924;2023-05-25T00:59:52;100195.09;;;10.27;98.38
49459;BME280;35354;51.296;16.924;2023-05-25T01:02:18;100189.03;;;10.27;98.16
49459;BME280;35354;51.296;16.924;2023-05-25T01:04:50;100198.50;;;10.29;98.33
49459;BME280;35354;51.296;16.924;2023-05-25T01:07:20;100226.72;;;10.41;98.46
49459;BME280;35354;51.296;16.924;2023-05-25T01:10:04;100203.88;;;10.24;98.44
49459;BME280;35354;51.296;16.924;2023-05-25T01:12:32;100215.66;;;10.35;98.78
49459;BME280;35354;51.296;16.924;2023-05-25T01:15:01;100233.72;;;10.39;98.58
49459;BME280;35354;51.296;16.924;2023-05-25T01:17:28;100199.69;;;10.19;99.26
49459;BME280;35354;51.296;16.924;2023-05-25T01:19:53;100226.06;;;10.35;99.59
49459;BME280;35354;51.296;16.924;2023-05-25T01:24:48;100234.56;;;10.40;100.00
49459;BME280;35354;51.296;16.924;2023-05-25T01:27:32;100221.78;;;10.34;100.00
49459;BME280;35354;51.296;16.924;2023-05-25T01:30:00;100217.56;;;10.30;100.00
49459;BME280;35354;51.296;16.924;2023-05-25T01:32:26;100203.03;;;10.22;100.00
49459;BME280;35354;51.296;16.924;2023-05-25T01:34:54;100220.25;;;10.28;100.00
49459;BME280;35354;51.296;16.924;2023-05-25T01:37:20;100208.31;;;10.21;100.00
49459;BME280;35354;51.296;16.924;2023-05-25T01:39:49;100211.84;;;10.20;100.00
49459;BME280;35354;51.296;16.924;2023-05-25T01:42:14;100223.41;;;10.36;100.00
49459;BME280;35354;51.296;16.924;2023-05-25T01:44:40;100207.91;;;10.33;100.00
49459;BME280;35354;51.296;16.924;2023-05-25T01:52:58;100237.09;;;10.65;100.00
49459;BME280;35354;51.296;16.924;2023-05-25T01:55:27;100208.97;;;10.51;100.00
49459;BME280;35354;51.296;16.924;2023-05-25T01:57:55;100204.59;;;10.52;100.00
49459;BME280;35354;51.296;16.924;2023-05-25T02:00:23;100224.25;;;10.60;100.00
49459;BME280;35354;51.296;16.924;2023-05-25T02:02:50;100246.22;;;10.77;100.00
49459;BME280;35354;51.296;16.924;2023-05-25T02:05:18;100235.78;;;10.77;100.00
49459;BME280;35354;51.296;16.924;2023-05-25T02:07:44;100250.22;;;10.85;100.00
49459;BME280;35354;51.296;16.924;2023-05-25T02:10:09;100226.22;;;10.77;100.00
49459;BME280;35354;51.296;16.924;2023-05-25T02:12:35;100215.78;;;10.77;100.00
49459;BME280;35354;51.296;16.924;2023-05-25T02:15:00;100238.53;;;10.95;100.00
49459;BME280;35354;51.296;16.924;2023-05-25T02:17:25;100245.22;;;11.03;100.00
49459;BME280;35354;51.296;16.924;2023-05-25T02:19:52;100242.72;;;10.99;100.00
49459;BME280;35354;51.296;16.924;2023-05-25T02:22:19;100228.09;;;10.95;100.00
49459;BME280;35354;51.296;16.924;2023-05-25T02:24:45;100220.19;;;10.98;100.00
49459;BME280;35354;51.296;16.924;2023-05-25T02:27:10;100212.59;;;10.92;100.00
49459;BME280;35354;51.296;16.924;2023-05-25T02:29:37;100220.13;;;11.00;100.00
49459;BME280;35354;51.296;16.924;2023-05-25T02:32:02;100222.66;;;11.02;100.00
49459;BME280;35354;51.296;16.924;2023-05-25T02:34:28;100242.13;;;11.15;100.00
49459;BME280;35354;51.296;16.924;2023-05-25T02:36:53;100250.75;;;11.17;100.00
49459;BME280;35354;51.296;16.924;2023-05-25T02:39:18;100249.00;;;11.17;100.00
49459;BME280;35354;51.296;16.924;2023-05-25T02:41:44;100233.75;;;11.07;100.00
49459;BME280;35354;51.296;16.924;2023-05-25T02:44:09;100232.72;;;11.11;100.00
49459;BME280;35354;51.296;16.924;2023-05-25T02:46:35;100251.41;;;11.22;100.00
49459;BME280;35354;51.296;16.924;2023-05-25T02:49:00;100231.69;;;11.15;100.00
49459;BME280;35354;51.296;16.924;2023-05-25T02:51:27;100252.72;;;11.32;100.00
49459;BME280;35354;51.296;16.924;2023-05-25T02:53:52;100233.94;;;11.24;100.00
49459;BME280;35354;51.296;16.924;2023-05-25T02:56:18;100230.44;;;11.25;100.00
49459;BME280;35354;51.296;16.924;2023-05-25T02:58:43;100245.63;;;11.36;100.00
49459;BME280;35354;51.296;16.924;2023-05-25T03:01:08;100258.31;;;11.45;100.00
49459;BME280;35354;51.296;16.924;2023-05-25T03:03:35;100242.72;;;11.43;100.00
49459;BME280;35354;51.296;16.924;2023-05-25T03:06:01;100230.66;;;11.41;100.00
49459;BME280;35354;51.296;16.924;2023-05-25T03:08:28;100245.03;;;11.51;100.00
49459;BME280;35354;51.296;16.924;2023-05-25T03:10:54;100238.78;;;11.55;100.00
49459;BME280;35354;51.296;16.924;2023-05-25T03:13:19;100237.00;;;11.56;100.00
49459;BME280;35354;51.296;16.924;2023-05-25T03:15:44;100234.53;;;11.53;100.00
49459;BME280;35354;51.296;16.924;2023-05-25T03:18:10;100240.47;;;11.56;100.00
49459;BME280;35354;51.296;16.924;2023-05-25T03:20:35;100224.59;;;11.40;100.00
49459;BME280;35354;51.296;16.924;2023-05-25T03:23:01;100257.78;;;11.59;100.00
49459;BME280;35354;51.296;16.924;2023-05-25T03:25:26;100249.75;;;11.63;100.00
49459;BME280;35354;51.296;16.924;2023-05-25T03:27:52;100221.66;;;11.48;100.00
49459;BME280;35354;51.296;16.924;2023-05-25T03:30:18;100256.53;;;11.67;100.00
49459;BME280;35354;51.296;16.924;2023-05-25T03:32:44;100244.56;;;11.62;100.00
49459;BME280;35354;51.296;16.924;2023-05-25T03:35:09;100242.13;;;11.59;100.00
49459;BME280;35354;51.296;16.924;2023-05-25T03:37:35;100250.44;;;11.67;100.00
49459;BME280;35354;51.296;16.924;2023-05-25T03:40:00;100246.25;;;11.63;100.00
49459;BME280;35354;51.296;16.924;2023-05-25T03:42:26;100247.06;;;11.65;100.00
49459;BME280;35354;51.296;16.924;2023-05-25T03:44:51;100249.47;;;11.69;100.00
49459;BME280;35354;51.296;16.924;2023-05-25T03:47:17;100240.88;;;11.67;100.00
49459;BME280;35354;51.296;16.924;2023-05-25T03:49:42;100275.03;;;11.83;100.00
49459;BME280;35354;51.296;16.924;2023-05-25T03:52:08;100248.50;;;11.72;100.00
49459;BME280;35354;51.296;16.924;2023-05-25T03:54:33;100247.72;;;11.70;100.00
49459;BME280;35354;51.296;16.924;2023-05-25T03:56:58;100265.56;;;11.81;100.00
49459;BME280;35354;51.296;16.924;2023-05-25T03:59:24;100237.41;;;11.67;100.00
49459;BME280;35354;51.296;16.924;2023-05-25T04:01:50;100258.59;;;11.80;100.00
49459;BME280;35354;51.296;16.924;2023-05-25T04:04:16;100289.44;;;11.92;100.00
49459;BME280;35354;51.296;16.924;2023-05-25T04:06:42;100283.34;;;11.93;100.00
49459;BME280;35354;51.296;16.924;2023-05-25T04:09:10;100295.28;;;11.98;100.00
49459;BME280;35354;51.296;16.924;2023-05-25T04:11:35;100277.50;;;11.86;100.00
49459;BME280;35354;51.296;16.924;2023-05-25T04:14:01;100299.00;;;11.93;100.00
49459;BME280;35354;51.296;16.924;2023-05-25T04:16:27;100289.78;;;11.84;99.64
49459;BME280;35354;51.296;16.924;2023-05-25T04:18:52;100280.69;;;11.72;99.30
49459;BME280;35354;51.296;16.924;2023-05-25T04:21:18;100299.34;;;11.84;98.52
49459;BME280;35354;51.296;16.924;2023-05-25T04:23:43;100302.09;;;11.81;98.87
49459;BME280;35354;51.296;16.924;2023-05-25T04:26:09;100299.47;;;11.81;98.75
49459;BME280;35354;51.296;16.924;2023-05-25T04:28:35;100315.03;;;11.84;98.06
49459;BME280;35354;51.296;16.924;2023-05-25T04:31:05;100281.81;;;11.65;97.85
49459;BME280;35354;51.296;16.924;2023-05-25T04:33:31;100315.19;;;11.79;97.62
49459;BME280;35354;51.296;16.924;2023-05-25T04:35:58;100288.94;;;11.62;97.78
49459;BME280;35354;51.296;16.924;2023-05-25T04:38:24;100304.94;;;11.74;97.93
49459;BME280;35354;51.296;16.924;2023-05-25T04:40:50;100316.81;;;11.82;97.98
49459;BME280;35354;51.296;16.924;2023-05-25T04:43:16;100328.09;;;11.82;98.16
49459;BME280;35354;51.296;16.924;2023-05-25T04:45:43;100312.66;;;11.78;97.98
49459;BME280;35354;51.296;16.924;2023-05-25T04:48:10;100298.22;;;11.69;98.26
49459;BME280;35354;51.296;16.924;2023-05-25T04:50:36;100272.69;;;11.55;98.52
49459;BME280;35354;51.296;16.924;2023-05-25T04:53:04;100309.06;;;11.80;98.48
49459;BME280;35354;51.296;16.924;2023-05-25T04:55:29;100309.75;;;11.85;98.77
49459;BME280;35354;51.296;16.924;2023-05-25T04:57:55;100298.63;;;11.80;98.61
49459;BME280;35354;51.296;16.924;2023-05-25T05:00:20;100312.09;;;11.91;98.57
49459;BME280;35354;51.296;16.924;2023-05-25T05:02:46;100308.56;;;11.92;98.62
49459;BME280;35354;51.296;16.924;2023-05-25T05:05:11;100303.34;;;11.92;98.65
49459;BME280;35354;51.296;16.924;2023-05-25T05:07:36;100303.19;;;11.97;98.21
49459;BME280;35354;51.296;16.924;2023-05-25T05:10:02;100287.56;;;11.95;98.21
49459;BME280;35354;51.296;16.924;2023-05-25T05:12:28;100284.22;;;11.92;97.82
49459;BME280;35354;51.296;16.924;2023-05-25T05:14:53;100265.38;;;11.85;97.67
49459;BME280;35354;51.296;16.924;2023-05-25T05:17:20;100312.19;;;12.10;97.79
49459;BME280;35354;51.296;16.924;2023-05-25T05:19:45;100318.06;;;12.15;97.62
49459;BME280;35354;51.296;16.924;2023-05-25T05:22:11;100266.03;;;11.90;97.86
49459;BME280;35354;51.296;16.924;2023-05-25T05:24:39;100323.16;;;12.18;97.63
49459;BME280;35354;51.296;16.924;2023-05-25T05:27:04;100326.53;;;12.20;97.51
49459;BME280;35354;51.296;16.924;2023-05-25T05:29:30;100296.72;;;12.06;97.48
49459;BME280;35354;51.296;16.924;2023-05-25T05:31:55;100316.94;;;12.21;97.40
49459;BME280;35354;51.296;16.924;2023-05-25T05:34:21;100298.97;;;12.13;97.23
49459;BME280;35354;51.296;16.924;2023-05-25T05:36:46;100292.38;;;12.05;97.14
49459;BME280;35354;51.296;16.924;2023-05-25T05:39:12;100311.72;;;12.21;97.21
49459;BME280;35354;51.296;16.924;2023-05-25T05:41:37;100305.84;;;12.16;97.29
49459;BME280;35354;51.296;16.924;2023-05-25T05:44:03;100308.06;;;12.25;97.38
49459;BME280;35354;51.296;16.924;2023-05-25T05:46:28;100307.22;;;12.24;97.20
49459;BME280;35354;51.296;16.924;2023-05-25T05:48:53;100306.09;;;12.30;96.92
49459;BME280;35354;51.296;16.924;2023-05-25T05:51:19;100325.28;;;12.49;97.05
49459;BME280;35354;51.296;16.924;2023-05-25T05:53:44;100331.97;;;12.57;96.72
49459;BME280;35354;51.296;16.924;2023-05-25T05:56:16;100329.41;;;12.55;96.55
49459;BME280;35354;51.296;16.924;2023-05-25T05:58:42;100311.50;;;12.46;96.38
49459;BME280;35354;51.296;16.924;2023-05-25T06:01:07;100312.44;;;12.45;96.04
49459;BME280;35354;51.296;16.924;2023-05-25T06:03:33;100322.34;;;12.57;95.58
49459;BME280;35354;51.296;16.924;2023-05-25T06:05:58;100306.94;;;12.51;95.37
49459;BME280;35354;51.296;16.924;2023-05-25T06:08:24;100340.81;;;12.73;95.19
49459;BME280;35354;51.296;16.924;2023-05-25T06:10:50;100326.97;;;12.71;95.14
49459;BME280;35354;51.296;16.924;2023-05-25T06:13:15;100329.44;;;12.74;94.32
49459;BME280;35354;51.296;16.924;2023-05-25T06:15:41;100341.97;;;12.86;93.95
49459;BME280;35354;51.296;16.924;2023-05-25T06:18:06;100333.41;;;12.83;93.91
49459;BME280;35354;51.296;16.924;2023-05-25T06:20:32;100340.13;;;12.88;94.00
49459;BME280;35354;51.296;16.924;2023-05-25T06:22:57;100316.28;;;12.76;93.88
49459;BME280;35354;51.296;16.924;2023-05-25T06:25:22;100324.22;;;12.93;93.84
49459;BME280;35354;51.296;16.924;2023-05-25T06:27:48;100323.38;;;12.92;93.41
49459;BME280;35354;51.296;16.924;2023-05-25T06:30:13;100340.06;;;13.09;93.16
49459;BME280;35354;51.296;16.924;2023-05-25T06:32:39;100297.38;;;12.89;92.78
49459;BME280;35354;51.296;16.924;2023-05-25T06:35:04;100346.50;;;13.20;92.14
49459;BME280;35354;51.296;16.924;2023-05-25T06:37:30;100343.69;;;13.25;91.97
49459;BME280;35354;51.296;16.924;2023-05-25T06:40:01;100340.72;;;13.33;91.95
49459;BME280;35354;51.296;16.924;2023-05-25T06:42:27;100340.59;;;13.36;91.55
49459;BME280;35354;51.296;16.924;2023-05-25T06:44:52;100323.88;;;13.19;91.25
49459;BME280;35354;51.296;16.924;2023-05-25T06:47:18;100344.91;;;13.37;91.52
49459;BME280;35354;51.296;16.924;2023-05-25T06:49:43;100325.88;;;13.33;91.24
49459;BME280;35354;51.296;16.924;2023-05-25T06:52:08;100342.47;;;13.51;90.83
49459;BME280;35354;51.296;16.924;2023-05-25T06:54:33;100314.34;;;13.37;90.49
49459;BME280;35354;51.296;16.924;2023-05-25T06:56:59;100345.88;;;13.53;90.09
49459;BME280;35354;51.296;16.924;2023-05-25T06:59:25;100345.78;;;13.55;90.51
49459;BME280;35354;51.296;16.924;2023-05-25T07:01:50;100339.56;;;13.57;90.04
49459;BME280;35354;51.296;16.924;2023-05-25T07:04:16;100331.66;;;13.59;89.94
49459;BME280;35354;51.296;16.924;2023-05-25T07:06:42;100312.75;;;13.52;90.08
49459;BME280;35354;51.296;16.924;2023-05-25T07:09:07;100309.00;;;13.58;89.86
49459;BME280;35354;51.296;16.924;2023-05-25T07:11:32;100304.41;;;13.63;89.53
49459;BME280;35354;51.296;16.924;2023-05-25T07:13:58;100338.00;;;13.89;89.56
49459;BME280;35354;51.296;16.924;2023-05-25T07:16:23;100337.72;;;13.95;89.50
49459;BME280;35354;51.296;16.924;2023-05-25T07:18:50;100318.06;;;13.87;89.03
49459;BME280;35354;51.296;16.924;2023-05-25T07:21:15;100298.81;;;13.88;88.83
49459;BME280;35354;51.296;16.924;2023-05-25T07:23:41;100331.06;;;14.06;88.50
49459;BME280;35354;51.296;16.924;2023-05-25T07:26:06;100319.59;;;14.08;88.08
49459;BME280;35354;51.296;16.924;2023-05-25T07:28:32;100316.66;;;14.14;87.83
49459;BME280;35354;51.296;16.924;2023-05-25T07:30:57;100329.38;;;14.22;87.63
49459;BME280;35354;51.296;16.924;2023-05-25T07:33:23;100328.31;;;14.26;87.61
49459;BME280;35354;51.296;16.924;2023-05-25T07:35:48;100325.78;;;14.25;87.25
49459;BME280;35354;51.296;16.924;2023-05-25T07:38:15;100363.13;;;14.45;87.27
49459;BME280;35354;51.296;16.924;2023-05-25T07:40:40;100341.16;;;14.31;86.81
49459;BME280;35354;51.296;16.924;2023-05-25T07:43:06;100341.84;;;14.34;86.64
49459;BME280;35354;51.296;16.924;2023-05-25T07:45:31;100356.03;;;14.47;86.71
49459;BME280;35354;51.296;16.924;2023-05-25T07:47:56;100344.63;;;14.48;86.18
49459;BME280;35354;51.296;16.924;2023-05-25T07:50:22;100344.50;;;14.52;85.76
49459;BME280;35354;51.296;16.924;2023-05-25T07:52:48;100366.81;;;14.76;85.75
49459;BME280;35354;51.296;16.924;2023-05-25T07:55:13;100371.97;;;14.78;84.67
49459;BME280;35354;51.296;16.924;2023-05-25T07:57:38;100338.06;;;14.57;84.58
49459;BME280;35354;51.296;16.924;2023-05-25T08:00:04;100343.00;;;14.63;84.60
49459;BME280;35354;51.296;16.924;2023-05-25T08:02:32;100363.69;;;14.85;84.77
49459;BME280;35354;51.296;16.924;2023-05-25T08:04:57;100339.81;;;14.74;84.89
49459;BME280;35354;51.296;16.924;2023-05-25T08:07:26;100351.28;;;14.89;84.52
49459;BME280;35354;51.296;16.924;2023-05-25T08:09:51;100361.63;;;15.08;84.27
49459;BME280;35354;51.296;16.924;2023-05-25T08:12:16;100355.03;;;15.16;83.55
49459;BME280;35354;51.296;16.924;2023-05-25T08:14:42;100369.84;;;15.33;82.82
49459;BME280;35354;51.296;16.924;2023-05-25T08:17:07;100356.06;;;15.30;82.27
49459;BME280;35354;51.296;16.924;2023-05-25T08:19:32;100361.41;;;15.44;82.28
49459;BME280;35354;51.296;16.924;2023-05-25T08:21:58;100364.63;;;15.65;81.66
49459;BME280;35354;51.296;16.924;2023-05-25T08:24:24;100372.56;;;15.79;81.43
49459;BME280;35354;51.296;16.924;2023-05-25T08:26:49;100352.50;;;15.78;81.06
49459;BME280;35354;51.296;16.924;2023-05-25T08:29:15;100362.81;;;15.97;80.31
49459;BME280;35354;51.296;16.924;2023-05-25T08:31:40;100351.00;;;16.04;80.52
49459;BME280;35354;51.296;16.924;2023-05-25T08:34:13;100352.16;;;16.14;79.64
49459;BME280;35354;51.296;16.924;2023-05-25T08:36:38;100361.41;;;16.36;79.44
49459;BME280;35354;51.296;16.924;2023-05-25T08:39:04;100340.84;;;16.42;78.86
49459;BME280;35354;51.296;16.924;2023-05-25T08:41:30;100368.13;;;16.70;78.20
49459;BME280;35354;51.296;16.924;2023-05-25T08:43:56;100364.59;;;16.85;77.55
49459;BME280;35354;51.296;16.924;2023-05-25T08:46:29;100371.38;;;17.04;76.98
49459;BME280;35354;51.296;16.924;2023-05-25T08:49:03;100353.75;;;17.18;76.80
49459;BME280;35354;51.296;16.924;2023-05-25T08:51:33;100374.03;;;17.45;76.18
49459;BME280;35354;51.296;16.924;2023-05-25T08:54:06;100351.06;;;17.47;75.54
49459;BME280;35354;51.296;16.924;2023-05-25T08:56:35;100354.72;;;17.59;75.11
49459;BME280;35354;51.296;16.924;2023-05-25T08:59:30;100368.63;;;17.75;74.46
49459;BME280;35354;51.296;16.924;2023-05-25T09:02:04;100342.84;;;17.66;73.65
49459;BME280;35354;51.296;16.924;2023-05-25T09:04:33;100362.53;;;17.87;73.42
49459;BME280;35354;51.296;16.924;2023-05-25T09:06:59;100371.84;;;17.93;73.33
49459;BME280;35354;51.296;16.924;2023-05-25T09:09:24;100370.56;;;17.99;72.95
49459;BME280;35354;51.296;16.924;2023-05-25T09:11:51;100358.53;;;17.94;72.05
49459;BME280;35354;51.296;16.924;2023-05-25T09:14:17;100376.75;;;18.12;72.44
49459;BME280;35354;51.296;16.924;2023-05-25T09:16:44;100372.72;;;18.19;71.99
49459;BME280;35354;51.296;16.924;2023-05-25T09:19:09;100367.28;;;18.22;70.44
49459;BME280;35354;51.296;16.924;2023-05-25T09:21:35;100351.56;;;18.20;70.06
49459;BME280;35354;51.296;16.924;2023-05-25T09:24:01;100359.81;;;18.41;70.27
49459;BME280;35354;51.296;16.924;2023-05-25T09:26:26;100351.69;;;18.57;70.58
49459;BME280;35354;51.296;16.924;2023-05-25T09:28:52;100361.00;;;18.76;70.60
49459;BME280;35354;51.296;16.924;2023-05-25T09:31:17;100359.00;;;18.92;69.96
49459;BME280;35354;51.296;16.924;2023-05-25T09:33:44;100377.13;;;19.22;69.14
49459;BME280;35354;51.296;16.924;2023-05-25T09:36:11;100374.34;;;19.24;68.20
49459;BME280;35354;51.296;16.924;2023-05-25T09:38:39;100367.72;;;19.18;67.70
49459;BME280;35354;51.296;16.924;2023-05-25T09:41:05;100378.78;;;19.23;67.83
49459;BME280;35354;51.296;16.924;2023-05-25T09:43:31;100353.97;;;19.13;68.69
49459;BME280;35354;51.296;16.924;2023-05-25T09:45:56;100369.81;;;19.26;68.40
49459;BME280;35354;51.296;16.924;2023-05-25T09:48:22;100377.47;;;19.41;68.99
49459;BME280;35354;51.296;16.924;2023-05-25T09:50:48;100356.13;;;19.44;68.22
49459;BME280;35354;51.296;16.924;2023-05-25T09:53:13;100356.06;;;19.57;66.91
49459;BME280;35354;51.296;16.924;2023-05-25T09:55:39;100353.97;;;19.62;65.75
49459;BME280;35354;51.296;16.924;2023-05-25T09:58:04;100354.81;;;19.63;64.95
49459;BME280;35354;51.296;16.924;2023-05-25T10:00:30;100347.03;;;19.49;65.24
49459;BME280;35354;51.296;16.924;2023-05-25T10:02:55;100378.31;;;19.42;66.80
49459;BME280;35354;51.296;16.924;2023-05-25T10:05:21;100365.56;;;19.36;65.78
49459;BME280;35354;51.296;16.924;2023-05-25T10:07:47;100367.03;;;19.40;66.48
49459;BME280;35354;51.296;16.924;2023-05-25T10:10:14;100371.25;;;19.42;65.19
49459;BME280;35354;51.296;16.924;2023-05-25T10:12:41;100355.06;;;19.47;65.39
49459;BME280;35354;51.296;16.924;2023-05-25T10:15:10;100370.34;;;19.55;66.08
49459;BME280;35354;51.296;16.924;2023-05-25T10:17:43;100362.53;;;19.53;66.93
49459;BME280;35354;51.296;16.924;2023-05-25T10:20:10;100355.41;;;19.42;66.63
49459;BME280;35354;51.296;16.924;2023-05-25T10:22:56;100361.22;;;19.35;66.27
49459;BME280;35354;51.296;16.924;2023-05-25T10:25:33;100351.22;;;19.27;66.70
49459;BME280;35354;51.296;16.924;2023-05-25T10:28:10;100348.78;;;19.24;67.28
49459;BME280;35354;51.296;16.924;2023-05-25T10:30:37;100373.09;;;19.53;67.16
49459;BME280;35354;51.296;16.924;2023-05-25T10:33:03;100352.09;;;19.52;65.47
49459;BME280;35354;51.296;16.924;2023-05-25T10:35:29;100360.09;;;19.63;66.97
49459;BME280;35354;51.296;16.924;2023-05-25T10:37:55;100372.81;;;19.82;66.00
49459;BME280;35354;51.296;16.924;2023-05-25T10:40:22;100377.25;;;19.81;65.12
49459;BME280;35354;51.296;16.924;2023-05-25T10:42:50;100342.06;;;19.44;66.04
49459;BME280;35354;51.296;16.924;2023-05-25T10:45:16;100388.38;;;19.37;66.02
49459;BME280;35354;51.296;16.924;2023-05-25T10:47:42;100354.00;;;19.00;67.07
49459;BME280;35354;51.296;16.924;2023-05-25T10:50:21;100376.91;;;19.00;68.29
49459;BME280;35354;51.296;16.924;2023-05-25T10:52:58;100373.25;;;18.89;68.30
49459;BME280;35354;51.296;16.924;2023-05-25T10:55:25;100365.13;;;18.92;69.22
49459;BME280;35354;51.296;16.924;2023-05-25T10:58:09;100366.34;;;19.00;68.76
49459;BME280;35354;51.296;16.924;2023-05-25T11:00:35;100349.34;;;19.04;69.01
49459;BME280;35354;51.296;16.924;2023-05-25T11:03:01;100335.91;;;19.19;68.86
49459;BME280;35354;51.296;16.924;2023-05-25T11:07:57;100336.25;;;19.52;67.92
49459;BME280;35354;51.296;16.924;2023-05-25T11:10:42;100358.22;;;19.76;67.10
49459;BME280;35354;51.296;16.924;2023-05-25T11:16:17;100359.88;;;19.90;67.39
49459;BME280;35354;51.296;16.924;2023-05-25T11:18:48;100345.91;;;19.88;66.87
49459;BME280;35354;51.296;16.924;2023-05-25T11:23:55;100345.00;;;19.76;67.79
49459;BME280;35354;51.296;16.924;2023-05-25T11:26:26;100331.59;;;19.79;67.53
49459;BME280;35354;51.296;16.924;2023-05-25T11:28:53;100351.09;;;19.89;67.47
49459;BME280;35354;51.296;16.924;2023-05-25T11:31:20;100337.72;;;19.80;68.09
49459;BME280;35354;51.296;16.924;2023-05-25T11:33:47;100334.13;;;19.81;67.65
49459;BME280;35354;51.296;16.924;2023-05-25T11:36:13;100329.16;;;19.76;67.12
49459;BME280;35354;51.296;16.924;2023-05-25T11:38:43;100349.66;;;19.97;66.49
49459;BME280;35354;51.296;16.924;2023-05-25T11:41:17;100348.03;;;20.07;65.39
49459;BME280;35354;51.296;16.924;2023-05-25T11:43:44;100349.50;;;20.11;65.96
49459;BME280;35354;51.296;16.924;2023-05-25T11:46:10;100313.19;;;20.02;66.91
49459;BME280;35354;51.296;16.924;2023-05-25T11:48:41;100340.56;;;20.36;66.33
49459;BME280;35354;51.296;16.924;2023-05-25T11:51:07;100316.97;;;20.33;66.21
49459;BME280;35354;51.296;16.924;2023-05-25T11:53:32;100343.84;;;20.51;65.69
49459;BME280;35354;51.296;16.924;2023-05-25T11:55:58;100343.38;;;20.57;65.61
49459;BME280;35354;51.296;16.924;2023-05-25T11:58:23;100329.06;;;20.48;65.88
49459;BME280;35354;51.296;16.924;2023-05-25T12:00:48;100335.25;;;20.47;66.55
49459;BME280;35354;51.296;16.924;2023-05-25T12:03:29;100313.84;;;20.39;65.87
49459;BME280;35354;51.296;16.924;2023-05-25T12:05:55;100313.00;;;20.38;66.19
49459;BME280;35354;51.296;16.924;2023-05-25T12:08:31;100314.72;;;20.51;65.89
49459;BME280;35354;51.296;16.924;2023-05-25T12:10:57;100317.88;;;20.67;65.07
49459;BME280;35354;51.296;16.924;2023-05-25T12:13:23;100315.81;;;20.59;64.21
49459;BME280;35354;51.296;16.924;2023-05-25T12:15:48;100308.25;;;20.55;64.36
49459;BME280;35354;51.296;16.924;2023-05-25T12:18:13;100317.50;;;20.60;64.90
49459;BME280;35354;51.296;16.924;2023-05-25T12:20:39;100323.03;;;20.68;65.13
49459;BME280;35354;51.296;16.924;2023-05-25T12:23:05;100332.06;;;20.77;65.30
49459;BME280;35354;51.296;16.924;2023-05-25T12:25:31;100318.63;;;20.69;65.07
49459;BME280;35354;51.296;16.924;2023-05-25T12:28:10;100320.28;;;20.70;65.27
49459;BME280;35354;51.296;16.924;2023-05-25T12:30:36;100315.34;;;20.77;65.12
49459;BME280;35354;51.296;16.924;2023-05-25T12:33:02;100317.63;;;20.81;64.04
49459;BME280;35354;51.296;16.924;2023-05-25T12:35:28;100322.78;;;20.94;63.45
49459;BME280;35354;51.296;16.924;2023-05-25T12:38:12;100323.66;;;20.95;64.24
49459;BME280;35354;51.296;16.924;2023-05-25T12:40:39;100298.50;;;20.89;63.93
49459;BME280;35354;51.296;16.924;2023-05-25T12:43:05;100290.69;;;20.99;63.91
49459;BME280;35354;51.296;16.924;2023-05-25T12:45:31;100304.34;;;21.15;63.05
49459;BME280;35354;51.296;16.924;2023-05-25T12:47:56;100290.88;;;21.07;63.62
49459;BME280;35354;51.296;16.924;2023-05-25T12:50:22;100298.59;;;21.10;63.37
49459;BME280;35354;51.296;16.924;2023-05-25T12:52:47;100296.06;;;21.20;61.20